sensor_id;sensor_type;location;lat;lon;timestamp;temperature;humidity
63260;DHT22;49390;51.380;0.098;2024-01-07T00:00:24;4.40;99.90
63260;DHT22;49390;51.380;0.098;2024-01-07T00:03:11;4.40;99.90
63260;DHT22;49390;51.380;0.098;2024-01-07T00:05:39;4.30;99.90
63260;DHT22;49390;51.380;0.098;2024-01-07T00:08:07;4.30;99.90
63260;DHT22;49390;51.380;0.098;2024-01-07T00:10:35;4.20;99.90
63260;DHT22;49390;51.380;0.098;2024-01-07T00:13:03;4.20;99.90
63260;DHT22;49390;51.380;0.098;2024-01-07T00:15:31;4.20;99.90
63260;DHT22;49390;51.380;0.098;2024-01-07T00:17:59;4.20;99.90
63260;DHT22;49390;51.380;0.098;2024-01-07T00:20:27;4.20;99.90
63260;DHT22;49390;51.380;0.098;2024-01-07T00:22:55;4.10;99.90
63260;DHT22;49390;51.380;0.098;2024-01-07T00:25:24;4.10;99.90
63260;DHT22;49390;51.380;0.098;2024-01-07T00:27:51;4.10;99.90
63260;DHT22;49390;51.380;0.098;2024-01-07T00:30:23;4.00;99.90
63260;DHT22;49390;51.380;0.098;2024-01-07T00:32:50;4.00;99.90
63260;DHT22;49390;51.380;0.098;2024-01-07T00:35:19;4.00;99.90
63260;DHT22;49390;51.380;0.098;2024-01-07T00:37:48;3.90;99.90
63260;DHT22;49390;51.380;0.098;2024-01-07T00:40:16;3.90;99.90
63260;DHT22;49390;51.380;0.098;2024-01-07T00:42:43;3.90;99.90
63260;DHT22;49390;51.380;0.098;2024-01-07T00:45:11;3.80;99.90
63260;DHT22;49390;51.380;0.098;2024-01-07T00:47:39;3.80;99.90
63260;DHT22;49390;51.380;0.098;2024-01-07T00:50:07;3.80;99.90
63260;DHT22;49390;51.380;0.098;2024-01-07T00:52:35;3.80;99.90
63260;DHT22;49390;51.380;0.098;2024-01-07T00:55:06;3.70;99.90
63260;DHT22;49390;51.380;0.098;2024-01-07T00:57:34;3.70;99.90
63260;DHT22;49390;51.380;0.098;2024-01-07T01:00:05;3.70;99.90
63260;DHT22;49390;51.380;0.098;2024-01-07T01:02:34;3.60;99.90
63260;DHT22;49390;51.380;0.098;2024-01-07T01:05:04;3.60;99.90
63260;DHT22;49390;51.380;0.098;2024-01-07T01:07:32;3.60;99.90
63260;DHT22;49390;51.380;0.098;2024-01-07T01:09:59;3.50;99.90
63260;DHT22;49390;51.380;0.098;2024-01-07T01:12:27;3.50;99.90
63260;DHT22;49390;51.380;0.098;2024-01-07T01:14:55;3.50;99.90
63260;DHT22;49390;51.380;0.098;2024-01-07T01:17:23;3.50;99.90
63260;DHT22;49390;51.380;0.098;2024-01-07T01:19:51;3.40;99.90
63260;DHT22;49390;51.380;0.098;2024-01-07T01:22:19;3.40;99.90
63260;DHT22;49390;51.380;0.098;2024-01-07T01:24:47;3.40;99.90
63260;DHT22;49390;51.380;0.098;2024-01-07T01:27:16;3.40;99.90
63260;DHT22;49390;51.380;0.098;2024-01-07T01:29:44;3.40;99.90
63260;DHT22;49390;51.380;0.098;2024-01-07T01:32:12;3.30;99.90
63260;DHT22;49390;51.380;0.098;2024-01-07T01:34:40;3.30;99.90
63260;DHT22;49390;51.380;0.098;2024-01-07T01:37:08;3.30;99.90
63260;DHT22;49390;51.380;0.098;2024-01-07T01:39:40;3.30;99.90
63260;DHT22;49390;51.380;0.098;2024-01-07T01:42:08;3.20;99.90
63260;DHT22;49390;51.380;0.098;2024-01-07T01:44:36;3.20;99.90
63260;DHT22;49390;51.380;0.098;2024-01-07T01:47:05;3.20;99.90
63260;DHT22;49390;51.380;0.098;2024-01-07T01:49:34;3.10;99.90
63260;DHT22;49390;51.380;0.098;2024-01-07T01:52:05;3.10;99.90
63260;DHT22;49390;51.380;0.098;2024-01-07T01:54:33;3.10;99.90
63260;DHT22;49390;51.380;0.098;2024-01-07T01:57:01;3.10;99.90
63260;DHT22;49390;51.380;0.098;2024-01-07T01:59:29;3.00;99.90
63260;DHT22;49390;51.380;0.098;2024-01-07T02:01:57;3.00;99.90
63260;DHT22;49390;51.380;0.098;2024-01-07T02:04:25;3.00;99.90
63260;DHT22;49390;51.380;0.098;2024-01-07T02:06:53;3.00;99.90
63260;DHT22;49390;51.380;0.098;2024-01-07T02:09:21;2.90;99.90
63260;DHT22;49390;51.380;0.098;2024-01-07T02:12:02;2.90;99.90
63260;DHT22;49390;51.380;0.098;2024-01-07T02:14:31;2.90;99.90
63260;DHT22;49390;51.380;0.098;2024-01-07T02:16:59;2.90;99.90
63260;DHT22;49390;51.380;0.098;2024-01-07T02:19:27;2.90;99.90
63260;DHT22;49390;51.380;0.098;2024-01-07T02:21:55;2.90;99.90
63260;DHT22;49390;51.380;0.098;2024-01-07T02:24:23;2.80;99.90
63260;DHT22;49390;51.380;0.098;2024-01-07T02:26:50;2.80;99.90
63260;DHT22;49390;51.380;0.098;2024-01-07T02:29:18;2.80;99.90
63260;DHT22;49390;51.380;0.098;2024-01-07T02:31:46;2.80;99.90
63260;DHT22;49390;51.380;0.098;2024-01-07T02:34:14;2.80;99.90
63260;DHT22;49390;51.380;0.098;2024-01-07T02:36:42;2.80;99.90
63260;DHT22;49390;51.380;0.098;2024-01-07T02:39:10;2.70;99.90
63260;DHT22;49390;51.380;0.098;2024-01-07T02:41:37;2.70;99.90
63260;DHT22;49390;51.380;0.098;2024-01-07T02:44:05;2.80;99.90
63260;DHT22;49390;51.380;0.098;2024-01-07T02:46:35;2.70;99.90
63260;DHT22;49390;51.380;0.098;2024-01-07T02:49:03;2.70;99.90
63260;DHT22;49390;51.380;0.098;2024-01-07T02:51:31;2.70;99.90
63260;DHT22;49390;51.380;0.098;2024-01-07T02:53:59;2.70;99.90
63260;DHT22;49390;51.380;0.098;2024-01-07T02:56:26;2.70;99.90
63260;DHT22;49390;51.380;0.098;2024-01-07T02:58:54;2.70;99.90
63260;DHT22;49390;51.380;0.098;2024-01-07T03:01:22;2.70;99.90
63260;DHT22;49390;51.380;0.098;2024-01-07T03:03:51;2.60;99.90
63260;DHT22;49390;51.380;0.098;2024-01-07T03:06:19;2.60;99.90
63260;DHT22;49390;51.380;0.098;2024-01-07T03:08:47;2.60;99.90
63260;DHT22;49390;51.380;0.098;2024-01-07T03:11:16;2.60;99.90
63260;DHT22;49390;51.380;0.098;2024-01-07T03:13:44;2.60;99.90
63260;DHT22;49390;51.380;0.098;2024-01-07T03:16:22;2.50;99.90
63260;DHT22;49390;51.380;0.098;2024-01-07T03:18:50;2.60;99.90
63260;DHT22;49390;51.380;0.098;2024-01-07T03:21:19;2.50;99.90
63260;DHT22;49390;51.380;0.098;2024-01-07T03:23:48;2.60;99.90
63260;DHT22;49390;51.380;0.098;2024-01-07T03:26:16;2.50;99.90
63260;DHT22;49390;51.380;0.098;2024-01-07T03:28:45;2.50;99.90
63260;DHT22;49390;51.380;0.098;2024-01-07T03:31:18;2.50;99.90
63260;DHT22;49390;51.380;0.098;2024-01-07T03:33:46;2.50;99.90
63260;DHT22;49390;51.380;0.098;2024-01-07T03:36:14;2.50;99.90
63260;DHT22;49390;51.380;0.098;2024-01-07T03:38:42;2.50;99.90
63260;DHT22;49390;51.380;0.098;2024-01-07T03:41:16;2.40;99.90
63260;DHT22;49390;51.380;0.098;2024-01-07T03:43:48;2.40;99.90
63260;DHT22;49390;51.380;0.098;2024-01-07T03:46:16;2.40;99.90
63260;DHT22;49390;51.380;0.098;2024-01-07T03:48:44;2.40;99.90
63260;DHT22;49390;51.380;0.098;2024-01-07T03:51:12;2.40;99.90
63260;DHT22;49390;51.380;0.098;2024-01-07T03:53:40;2.40;99.90
63260;DHT22;49390;51.380;0.098;2024-01-07T03:56:08;2.40;99.90
63260;DHT22;49390;51.380;0.098;2024-01-07T03:58:36;2.40;99.90
63260;DHT22;49390;51.380;0.098;2024-01-07T04:01:03;2.40;99.90
63260;DHT22;49390;51.380;0.098;2024-01-07T04:03:32;2.40;99.90
63260;DHT22;49390;51.380;0.098;2024-01-07T04:05:59;2.40;99.90
63260;DHT22;49390;51.380;0.098;2024-01-07T04:08:27;2.40;99.90
63260;DHT22;49390;51.380;0.098;2024-01-07T04:10:56;2.40;99.90
63260;DHT22;49390;51.380;0.098;2024-01-07T04:13:23;2.30;99.90
63260;DHT22;49390;51.380;0.098;2024-01-07T04:15:51;2.30;99.90
63260;DHT22;49390;51.380;0.098;2024-01-07T04:18:19;2.30;99.90
63260;DHT22;49390;51.380;0.098;2024-01-07T04:20:47;2.30;99.90
63260;DHT22;49390;51.380;0.098;2024-01-07T04:23:15;2.30;99.90
63260;DHT22;49390;51.380;0.098;2024-01-07T04:25:42;2.30;99.90
63260;DHT22;49390;51.380;0.098;2024-01-07T04:28:12;2.30;99.90
63260;DHT22;49390;51.380;0.098;2024-01-07T04:30:39;2.30;99.90
63260;DHT22;49390;51.380;0.098;2024-01-07T04:33:07;2.20;99.90
63260;DHT22;49390;51.380;0.098;2024-01-07T04:35:35;2.20;99.90
63260;DHT22;49390;51.380;0.098;2024-01-07T04:38:04;2.20;99.90
63260;DHT22;49390;51.380;0.098;2024-01-07T04:40:31;2.10;99.90
63260;DHT22;49390;51.380;0.098;2024-01-07T04:42:59;2.30;99.90
63260;DHT22;49390;51.380;0.098;2024-01-07T04:45:27;2.20;99.90
63260;DHT22;49390;51.380;0.098;2024-01-07T04:47:55;2.20;99.90
63260;DHT22;49390;51.380;0.098;2024-01-07T04:50:23;2.40;99.90
63260;DHT22;49390;51.380;0.098;2024-01-07T04:52:51;2.20;99.90
63260;DHT22;49390;51.380;0.098;2024-01-07T04:55:19;2.20;99.90
63260;DHT22;49390;51.380;0.098;2024-01-07T04:57:47;2.20;99.90
63260;DHT22;49390;51.380;0.098;2024-01-07T05:00:15;2.20;99.90
63260;DHT22;49390;51.380;0.098;2024-01-07T05:02:43;2.20;99.90
63260;DHT22;49390;51.380;0.098;2024-01-07T05:05:10;2.20;99.90
63260;DHT22;49390;51.380;0.098;2024-01-07T05:07:38;2.20;99.90
63260;DHT22;49390;51.380;0.098;2024-01-07T05:10:06;2.20;99.90
63260;DHT22;49390;51.380;0.098;2024-01-07T05:12:34;2.20;99.90
63260;DHT22;49390;51.380;0.098;2024-01-07T05:15:02;2.20;99.90
63260;DHT22;49390;51.380;0.098;2024-01-07T05:17:30;2.20;99.90
63260;DHT22;49390;51.380;0.098;2024-01-07T05:19:58;2.20;99.90
63260;DHT22;49390;51.380;0.098;2024-01-07T05:22:26;2.10;99.90
63260;DHT22;49390;51.380;0.098;2024-01-07T05:24:54;2.20;99.90
63260;DHT22;49390;51.380;0.098;2024-01-07T05:27:21;2.20;99.90
63260;DHT22;49390;51.380;0.098;2024-01-07T05:29:49;2.20;99.90
63260;DHT22;49390;51.380;0.098;2024-01-07T05:32:17;2.20;99.90
63260;DHT22;49390;51.380;0.098;2024-01-07T05:34:45;2.20;99.90
63260;DHT22;49390;51.380;0.098;2024-01-07T05:37:13;2.20;99.90
63260;DHT22;49390;51.380;0.098;2024-01-07T05:39:40;2.20;99.90
63260;DHT22;49390;51.380;0.098;2024-01-07T05:42:08;2.20;99.90
63260;DHT22;49390;51.380;0.098;2024-01-07T05:44:36;2.20;99.90
63260;DHT22;49390;51.380;0.098;2024-01-07T05:47:04;2.20;99.90
63260;DHT22;49390;51.380;0.098;2024-01-07T05:49:32;2.20;99.90
63260;DHT22;49390;51.380;0.098;2024-01-07T05:52:00;2.20;99.90
63260;DHT22;49390;51.380;0.098;2024-01-07T05:54:28;2.30;99.90
63260;DHT22;49390;51.380;0.098;2024-01-07T05:56:59;2.30;99.90
63260;DHT22;49390;51.380;0.098;2024-01-07T05:59:26;2.30;99.90
63260;DHT22;49390;51.380;0.098;2024-01-07T06:01:58;2.30;99.90
63260;DHT22;49390;51.380;0.098;2024-01-07T06:04:26;2.20;99.90
63260;DHT22;49390;51.380;0.098;2024-01-07T06:06:55;2.30;99.90
63260;DHT22;49390;51.380;0.098;2024-01-07T06:09:23;2.30;99.90
63260;DHT22;49390;51.380;0.098;2024-01-07T06:11:51;2.20;99.90
63260;DHT22;49390;51.380;0.098;2024-01-07T06:14:18;2.30;99.90
63260;DHT22;49390;51.380;0.098;2024-01-07T06:16:46;2.30;99.90
63260;DHT22;49390;51.380;0.098;2024-01-07T06:19:16;2.30;99.90
63260;DHT22;49390;51.380;0.098;2024-01-07T06:21:45;2.30;99.90
63260;DHT22;49390;51.380;0.098;2024-01-07T06:24:13;2.30;99.90
63260;DHT22;49390;51.380;0.098;2024-01-07T06:26:40;2.30;99.90
63260;DHT22;49390;51.380;0.098;2024-01-07T06:29:08;2.30;99.90
63260;DHT22;49390;51.380;0.098;2024-01-07T06:31:45;2.30;99.90
63260;DHT22;49390;51.380;0.098;2024-01-07T06:34:13;2.30;99.90
63260;DHT22;49390;51.380;0.098;2024-01-07T06:36:41;2.20;99.90
63260;DHT22;49390;51.380;0.098;2024-01-07T06:39:09;2.20;99.90
63260;DHT22;49390;51.380;0.098;2024-01-07T06:41:37;2.20;99.90
63260;DHT22;49390;51.380;0.098;2024-01-07T06:44:05;2.20;99.90
63260;DHT22;49390;51.380;0.098;2024-01-07T06:46:33;2.10;99.90
63260;DHT22;49390;51.380;0.098;2024-01-07T06:49:01;2.10;99.90
63260;DHT22;49390;51.380;0.098;2024-01-07T06:51:30;2.10;99.90
63260;DHT22;49390;51.380;0.098;2024-01-07T06:53:58;2.10;99.90
63260;DHT22;49390;51.380;0.098;2024-01-07T06:56:26;2.00;99.90
63260;DHT22;49390;51.380;0.098;2024-01-07T06:58:53;2.00;99.90
63260;DHT22;49390;51.380;0.098;2024-01-07T07:01:21;2.00;99.90
63260;DHT22;49390;51.380;0.098;2024-01-07T07:03:53;2.00;99.90
63260;DHT22;49390;51.380;0.098;2024-01-07T07:06:21;2.00;99.90
63260;DHT22;49390;51.380;0.098;2024-01-07T07:08:48;1.90;99.90
63260;DHT22;49390;51.380;0.098;2024-01-07T07:11:16;2.00;99.90
63260;DHT22;49390;51.380;0.098;2024-01-07T07:13:44;2.00;99.90
63260;DHT22;49390;51.380;0.098;2024-01-07T07:16:12;2.00;99.90
63260;DHT22;49390;51.380;0.098;2024-01-07T07:18:39;2.00;99.90
63260;DHT22;49390;51.380;0.098;2024-01-07T07:21:07;2.00;99.90
63260;DHT22;49390;51.380;0.098;2024-01-07T07:23:35;1.90;99.90
63260;DHT22;49390;51.380;0.098;2024-01-07T07:26:03;1.90;99.90
63260;DHT22;49390;51.380;0.098;2024-01-07T07:28:31;1.90;99.90
63260;DHT22;49390;51.380;0.098;2024-01-07T07:30:59;1.90;99.90
63260;DHT22;49390;51.380;0.098;2024-01-07T07:33:26;1.90;99.90
63260;DHT22;49390;51.380;0.098;2024-01-07T07:35:54;1.90;99.90
63260;DHT22;49390;51.380;0.098;2024-01-07T07:38:23;1.90;99.90
63260;DHT22;49390;51.380;0.098;2024-01-07T07:40:51;1.90;99.90
63260;DHT22;49390;51.380;0.098;2024-01-07T07:43:20;1.90;99.90
63260;DHT22;49390;51.380;0.098;2024-01-07T07:45:48;1.90;99.90
63260;DHT22;49390;51.380;0.098;2024-01-07T07:48:17;1.90;99.90
63260;DHT22;49390;51.380;0.098;2024-01-07T07:50:45;1.80;99.90
63260;DHT22;49390;51.380;0.098;2024-01-07T07:53:13;1.90;99.90
63260;DHT22;49390;51.380;0.098;2024-01-07T07:55:41;1.90;99.90
63260;DHT22;49390;51.380;0.098;2024-01-07T07:58:09;1.90;99.90
63260;DHT22;49390;51.380;0.098;2024-01-07T08:00:37;1.90;99.90
63260;DHT22;49390;51.380;0.098;2024-01-07T08:03:04;1.90;99.90
63260;DHT22;49390;51.380;0.098;2024-01-07T08:05:32;1.80;99.90
63260;DHT22;49390;51.380;0.098;2024-01-07T08:08:21;1.80;99.90
63260;DHT22;49390;51.380;0.098;2024-01-07T08:10:49;1.80;99.90
63260;DHT22;49390;51.380;0.098;2024-01-07T08:13:17;1.80;99.90
63260;DHT22;49390;51.380;0.098;2024-01-07T08:15:45;1.80;99.90
63260;DHT22;49390;51.380;0.098;2024-01-07T08:18:13;1.80;99.90
63260;DHT22;49390;51.380;0.098;2024-01-07T08:20:41;1.80;99.90
63260;DHT22;49390;51.380;0.098;2024-01-07T08:23:08;1.80;99.90
63260;DHT22;49390;51.380;0.098;2024-01-07T08:25:36;1.80;99.90
63260;DHT22;49390;51.380;0.098;2024-01-07T08:28:04;1.80;99.90
63260;DHT22;49390;51.380;0.098;2024-01-07T08:30:32;1.80;99.90
63260;DHT22;49390;51.380;0.098;2024-01-07T08:32:59;1.80;99.90
63260;DHT22;49390;51.380;0.098;2024-01-07T08:35:27;1.80;99.90
63260;DHT22;49390;51.380;0.098;2024-01-07T08:37:55;1.80;99.90
63260;DHT22;49390;51.380;0.098;2024-01-07T08:40:24;1.80;99.90
63260;DHT22;49390;51.380;0.098;2024-01-07T08:42:51;1.80;99.90
63260;DHT22;49390;51.380;0.098;2024-01-07T08:45:19;1.80;99.90
63260;DHT22;49390;51.380;0.098;2024-01-07T08:47:47;1.80;99.90
63260;DHT22;49390;51.380;0.098;2024-01-07T08:50:15;1.80;99.90
63260;DHT22;49390;51.380;0.098;2024-01-07T08:52:43;1.80;99.90
63260;DHT22;49390;51.380;0.098;2024-01-07T08:55:11;1.80;99.90
63260;DHT22;49390;51.380;0.098;2024-01-07T08:57:39;1.90;99.90
63260;DHT22;49390;51.380;0.098;2024-01-07T09:00:07;1.90;99.90
63260;DHT22;49390;51.380;0.098;2024-01-07T09:02:35;1.90;99.90
63260;DHT22;49390;51.380;0.098;2024-01-07T09:05:07;2.00;99.90
63260;DHT22;49390;51.380;0.098;2024-01-07T09:07:35;2.00;99.90
63260;DHT22;49390;51.380;0.098;2024-01-07T09:10:03;2.00;99.90
63260;DHT22;49390;51.380;0.098;2024-01-07T09:12:31;2.10;99.90
63260;DHT22;49390;51.380;0.098;2024-01-07T09:14:59;2.20;99.90
63260;DHT22;49390;51.380;0.098;2024-01-07T09:17:27;2.30;99.90
63260;DHT22;49390;51.380;0.098;2024-01-07T09:19:55;2.40;99.90
63260;DHT22;49390;51.380;0.098;2024-01-07T09:22:22;2.50;99.90
63260;DHT22;49390;51.380;0.098;2024-01-07T09:24:50;2.60;99.90
63260;DHT22;49390;51.380;0.098;2024-01-07T09:27:20;2.60;99.90
63260;DHT22;49390;51.380;0.098;2024-01-07T09:29:48;2.70;99.90
63260;DHT22;49390;51.380;0.098;2024-01-07T09:32:15;2.80;99.90
63260;DHT22;49390;51.380;0.098;2024-01-07T09:34:44;2.80;99.90
63260;DHT22;49390;51.380;0.098;2024-01-07T09:37:11;2.80;99.90
63260;DHT22;49390;51.380;0.098;2024-01-07T09:39:40;2.90;99.90
63260;DHT22;49390;51.380;0.098;2024-01-07T09:42:16;2.90;99.90
63260;DHT22;49390;51.380;0.098;2024-01-07T09:44:44;3.00;99.90
63260;DHT22;49390;51.380;0.098;2024-01-07T09:47:15;3.10;99.90
63260;DHT22;49390;51.380;0.098;2024-01-07T09:49:44;3.10;99.90
63260;DHT22;49390;51.380;0.098;2024-01-07T09:52:12;3.10;99.90
63260;DHT22;49390;51.380;0.098;2024-01-07T09:54:40;3.20;99.90
63260;DHT22;49390;51.380;0.098;2024-01-07T09:57:08;3.20;99.90
63260;DHT22;49390;51.380;0.098;2024-01-07T09:59:37;3.20;99.90
63260;DHT22;49390;51.380;0.098;2024-01-07T10:02:04;3.20;99.90
63260;DHT22;49390;51.380;0.098;2024-01-07T10:04:33;3.20;99.90
63260;DHT22;49390;51.380;0.098;2024-01-07T10:07:00;3.30;99.90
63260;DHT22;49390;51.380;0.098;2024-01-07T10:09:32;3.20;99.90
63260;DHT22;49390;51.380;0.098;2024-01-07T10:12:00;3.30;99.90
63260;DHT22;49390;51.380;0.098;2024-01-07T10:14:29;3.40;99.90
63260;DHT22;49390;51.380;0.098;2024-01-07T10:17:00;3.40;99.90
63260;DHT22;49390;51.380;0.098;2024-01-07T10:19:28;3.50;99.90
63260;DHT22;49390;51.380;0.098;2024-01-07T10:22:00;3.50;99.90
63260;DHT22;49390;51.380;0.098;2024-01-07T10:24:36;3.60;99.90
63260;DHT22;49390;51.380;0.098;2024-01-07T10:27:07;3.60;99.90
63260;DHT22;49390;51.380;0.098;2024-01-07T10:29:36;3.70;99.90
63260;DHT22;49390;51.380;0.098;2024-01-07T10:32:04;3.80;99.90
63260;DHT22;49390;51.380;0.098;2024-01-07T10:34:34;3.80;99.90
63260;DHT22;49390;51.380;0.098;2024-01-07T10:37:04;3.90;99.90
63260;DHT22;49390;51.380;0.098;2024-01-07T10:39:36;3.90;99.90
63260;DHT22;49390;51.380;0.098;2024-01-07T10:42:04;4.00;99.90
63260;DHT22;49390;51.380;0.098;2024-01-07T10:44:33;4.00;99.90
63260;DHT22;49390;51.380;0.098;2024-01-07T10:47:05;4.10;99.90
63260;DHT22;49390;51.380;0.098;2024-01-07T10:49:35;4.10;99.90
63260;DHT22;49390;51.380;0.098;2024-01-07T10:52:05;4.20;99.90
63260;DHT22;49390;51.380;0.098;2024-01-07T10:54:35;4.10;99.90
63260;DHT22;49390;51.380;0.098;2024-01-07T10:59:45;4.10;99.90
63260;DHT22;49390;51.380;0.098;2024-01-07T11:02:13;4.10;99.90
63260;DHT22;49390;51.380;0.098;2024-01-07T11:05:05;4.20;99.90
63260;DHT22;49390;51.380;0.098;2024-01-07T11:07:41;4.20;99.90
63260;DHT22;49390;51.380;0.098;2024-01-07T11:10:12;4.10;99.90
63260;DHT22;49390;51.380;0.098;2024-01-07T11:12:41;4.10;99.90
63260;DHT22;49390;51.380;0.098;2024-01-07T11:15:09;4.20;99.90
63260;DHT22;49390;51.380;0.098;2024-01-07T11:17:43;4.20;99.90
63260;DHT22;49390;51.380;0.098;2024-01-07T11:20:20;4.20;99.90
63260;DHT22;49390;51.380;0.098;2024-01-07T11:22:48;4.20;99.90
63260;DHT22;49390;51.380;0.098;2024-01-07T11:25:37;4.30;99.90
63260;DHT22;49390;51.380;0.098;2024-01-07T11:28:06;4.40;99.90
63260;DHT22;49390;51.380;0.098;2024-01-07T11:30:38;4.40;99.90
63260;DHT22;49390;51.380;0.098;2024-01-07T11:33:11;4.40;99.90
63260;DHT22;49390;51.380;0.098;2024-01-07T11:35:57;4.50;99.90
63260;DHT22;49390;51.380;0.098;2024-01-07T11:38:25;4.50;99.90
63260;DHT22;49390;51.380;0.098;2024-01-07T11:40:54;4.50;99.90
63260;DHT22;49390;51.380;0.098;2024-01-07T11:43:23;4.40;99.90
63260;DHT22;49390;51.380;0.098;2024-01-07T11:45:51;4.50;99.90
63260;DHT22;49390;51.380;0.098;2024-01-07T11:48:20;4.50;99.90
63260;DHT22;49390;51.380;0.098;2024-01-07T11:50:48;4.50;99.90
63260;DHT22;49390;51.380;0.098;2024-01-07T11:53:20;4.60;99.90
63260;DHT22;49390;51.380;0.098;2024-01-07T11:55:48;4.60;99.90
63260;DHT22;49390;51.380;0.098;2024-01-07T11:58:16;4.70;99.90
63260;DHT22;49390;51.380;0.098;2024-01-07T12:00:44;4.60;99.90
63260;DHT22;49390;51.380;0.098;2024-01-07T12:03:11;4.70;99.90
63260;DHT22;49390;51.380;0.098;2024-01-07T12:05:40;4.70;99.90
63260;DHT22;49390;51.380;0.098;2024-01-07T12:08:10;4.70;99.90
63260;DHT22;49390;51.380;0.098;2024-01-07T12:10:38;4.70;99.90
63260;DHT22;49390;51.380;0.098;2024-01-07T12:13:07;4.70;99.90
63260;DHT22;49390;51.380;0.098;2024-01-07T12:15:37;4.70;99.20
63260;DHT22;49390;51.380;0.098;2024-01-07T12:18:05;4.70;99.30
63260;DHT22;49390;51.380;0.098;2024-01-07T12:20:34;4.70;99.90
63260;DHT22;49390;51.380;0.098;2024-01-07T12:23:08;4.70;99.90
63260;DHT22;49390;51.380;0.098;2024-01-07T12:25:37;4.80;99.90
63260;DHT22;49390;51.380;0.098;2024-01-07T12:28:07;4.80;99.90
63260;DHT22;49390;51.380;0.098;2024-01-07T12:30:37;4.80;97.90
63260;DHT22;49390;51.380;0.098;2024-01-07T12:33:07;4.80;98.00
63260;DHT22;49390;51.380;0.098;2024-01-07T12:35:35;4.80;96.90
63260;DHT22;49390;51.380;0.098;2024-01-07T12:38:04;4.80;96.20
63260;DHT22;49390;51.380;0.098;2024-01-07T12:40:32;4.80;95.80
63260;DHT22;49390;51.380;0.098;2024-01-07T12:43:00;4.70;96.10
63260;DHT22;49390;51.380;0.098;2024-01-07T12:45:28;4.80;96.20
63260;DHT22;49390;51.380;0.098;2024-01-07T12:47:55;4.70;96.40
63260;DHT22;49390;51.380;0.098;2024-01-07T12:50:26;4.80;95.70
63260;DHT22;49390;51.380;0.098;2024-01-07T12:52:56;4.80;95.50
63260;DHT22;49390;51.380;0.098;2024-01-07T12:55:24;4.80;95.80
63260;DHT22;49390;51.380;0.098;2024-01-07T12:57:55;4.80;94.50
63260;DHT22;49390;51.380;0.098;2024-01-07T13:00:25;4.80;94.70
63260;DHT22;49390;51.380;0.098;2024-01-07T13:02:54;4.80;95.00
63260;DHT22;49390;51.380;0.098;2024-01-07T13:05:25;4.80;95.10
63260;DHT22;49390;51.380;0.098;2024-01-07T13:07:53;4.90;95.50
63260;DHT22;49390;51.380;0.098;2024-01-07T13:10:21;4.90;95.40
63260;DHT22;49390;51.380;0.098;2024-01-07T13:12:50;4.90;95.00
63260;DHT22;49390;51.380;0.098;2024-01-07T13:15:27;4.90;95.50
63260;DHT22;49390;51.380;0.098;2024-01-07T13:17:54;4.90;94.90
63260;DHT22;49390;51.380;0.098;2024-01-07T13:20:23;4.90;94.80
63260;DHT22;49390;51.380;0.098;2024-01-07T13:22:51;4.90;94.90
63260;DHT22;49390;51.380;0.098;2024-01-07T13:25:19;4.90;95.20
63260;DHT22;49390;51.380;0.098;2024-01-07T13:27:47;4.90;95.60
63260;DHT22;49390;51.380;0.098;2024-01-07T13:30:15;5.00;96.00
63260;DHT22;49390;51.380;0.098;2024-01-07T13:32:44;5.00;96.30
63260;DHT22;49390;51.380;0.098;2024-01-07T13:35:12;5.00;96.50
63260;DHT22;49390;51.380;0.098;2024-01-07T13:37:40;5.00;96.80
63260;DHT22;49390;51.380;0.098;2024-01-07T13:40:12;5.00;96.70
63260;DHT22;49390;51.380;0.098;2024-01-07T13:42:42;5.00;96.40
63260;DHT22;49390;51.380;0.098;2024-01-07T13:45:10;5.00;94.50
63260;DHT22;49390;51.380;0.098;2024-01-07T13:47:38;5.00;94.80
63260;DHT22;49390;51.380;0.098;2024-01-07T13:50:07;5.00;95.00
63260;DHT22;49390;51.380;0.098;2024-01-07T13:52:34;5.00;95.10
63260;DHT22;49390;51.380;0.098;2024-01-07T13:55:02;5.00;94.60
63260;DHT22;49390;51.380;0.098;2024-01-07T13:57:30;5.00;94.30
63260;DHT22;49390;51.380;0.098;2024-01-07T13:59:58;5.00;95.00
63260;DHT22;49390;51.380;0.098;2024-01-07T14:02:26;5.00;95.50
63260;DHT22;49390;51.380;0.098;2024-01-07T14:04:54;5.00;95.70
63260;DHT22;49390;51.380;0.098;2024-01-07T14:07:22;5.00;95.90
63260;DHT22;49390;51.380;0.098;2024-01-07T14:09:50;5.00;95.50
63260;DHT22;49390;51.380;0.098;2024-01-07T14:12:18;5.00;94.70
63260;DHT22;49390;51.380;0.098;2024-01-07T14:14:46;5.00;95.00
63260;DHT22;49390;51.380;0.098;2024-01-07T14:17:14;5.00;95.20
63260;DHT22;49390;51.380;0.098;2024-01-07T14:19:42;5.00;94.40
63260;DHT22;49390;51.380;0.098;2024-01-07T14:22:12;5.00;94.30
63260;DHT22;49390;51.380;0.098;2024-01-07T14:24:40;5.00;94.50
63260;DHT22;49390;51.380;0.098;2024-01-07T14:27:08;5.00;94.70
63260;DHT22;49390;51.380;0.098;2024-01-07T14:29:36;5.00;95.20
63260;DHT22;49390;51.380;0.098;2024-01-07T14:32:06;5.00;95.60
63260;DHT22;49390;51.380;0.098;2024-01-07T14:34:38;5.00;93.70
63260;DHT22;49390;51.380;0.098;2024-01-07T14:37:09;4.90;93.20
63260;DHT22;49390;51.380;0.098;2024-01-07T14:39:40;4.90;93.50
63260;DHT22;49390;51.380;0.098;2024-01-07T14:42:08;4.90;94.10
63260;DHT22;49390;51.380;0.098;2024-01-07T14:44:37;4.90;94.50
63260;DHT22;49390;51.380;0.098;2024-01-07T14:47:16;4.90;94.00
63260;DHT22;49390;51.380;0.098;2024-01-07T14:49:45;4.90;92.70
63260;DHT22;49390;51.380;0.098;2024-01-07T14:52:13;4.90;92.90
63260;DHT22;49390;51.380;0.098;2024-01-07T14:54:42;4.90;92.90
63260;DHT22;49390;51.380;0.098;2024-01-07T14:57:09;4.90;92.50
63260;DHT22;49390;51.380;0.098;2024-01-07T14:59:39;4.90;92.40
63260;DHT22;49390;51.380;0.098;2024-01-07T15:02:07;4.80;92.50
63260;DHT22;49390;51.380;0.098;2024-01-07T15:04:38;4.80;91.80
63260;DHT22;49390;51.380;0.098;2024-01-07T15:07:06;4.80;91.00
63260;DHT22;49390;51.380;0.098;2024-01-07T15:09:34;4.80;91.20
63260;DHT22;49390;51.380;0.098;2024-01-07T15:12:05;4.80;91.70
63260;DHT22;49390;51.380;0.098;2024-01-07T15:14:33;4.70;91.70
63260;DHT22;49390;51.380;0.098;2024-01-07T15:17:01;4.70;92.30
63260;DHT22;49390;51.380;0.098;2024-01-07T15:19:29;4.70;92.70
63260;DHT22;49390;51.380;0.098;2024-01-07T15:21:59;4.80;93.10
63260;DHT22;49390;51.380;0.098;2024-01-07T15:24:27;4.80;92.90
63260;DHT22;49390;51.380;0.098;2024-01-07T15:26:55;4.80;92.50
63260;DHT22;49390;51.380;0.098;2024-01-07T15:29:24;4.80;93.10
63260;DHT22;49390;51.380;0.098;2024-01-07T15:31:52;4.70;93.30
63260;DHT22;49390;51.380;0.098;2024-01-07T15:34:20;4.70;92.10
63260;DHT22;49390;51.380;0.098;2024-01-07T15:36:48;4.70;91.90
63260;DHT22;49390;51.380;0.098;2024-01-07T15:39:16;4.70;91.80
63260;DHT22;49390;51.380;0.098;2024-01-07T15:41:45;4.70;91.50
63260;DHT22;49390;51.380;0.098;2024-01-07T15:44:14;4.60;92.40
63260;DHT22;49390;51.380;0.098;2024-01-07T15:46:41;4.60;92.60
63260;DHT22;49390;51.380;0.098;2024-01-07T15:49:09;4.60;92.90
63260;DHT22;49390;51.380;0.098;2024-01-07T15:51:37;4.60;92.10
63260;DHT22;49390;51.380;0.098;2024-01-07T15:54:05;4.60;92.40
63260;DHT22;49390;51.380;0.098;2024-01-07T15:56:33;4.70;93.00